createdAt,value
2022-08-18T00:01:02.661Z,25.18
2022-08-18T00:03:56.516Z,25.22
2022-08-18T00:06:16.033Z,25.34
2022-08-18T00:08:42.406Z,25.33
2022-08-18T00:11:08.776Z,25.27
2022-08-18T00:13:35.128Z,25.36
2022-08-18T00:16:01.494Z,25.38
2022-08-18T00:18:27.868Z,25.38
2022-08-18T00:20:54.232Z,25.37
2022-08-18T00:23:20.600Z,25.37
2022-08-18T00:25:46.962Z,25.38
2022-08-18T00:28:13.375Z,25.38
2022-08-18T00:30:39.741Z,25.34
2022-08-18T00:33:06.101Z,25.31
2022-08-18T00:35:32.466Z,25.38
2022-08-18T00:37:58.825Z,25.36
2022-08-18T00:40:25.209Z,25.38
2022-08-18T00:42:51.717Z,25.32
2022-08-18T00:45:18.350Z,25.26
2022-08-18T00:47:44.716Z,25.31
2022-08-18T00:50:13.549Z,25.26
2022-08-18T00:52:41.900Z,25.24
2022-08-18T00:55:08.260Z,25.25
2022-08-18T00:57:34.634Z,25.28
2022-08-18T01:00:01.006Z,25.22
2022-08-18T01:02:27.373Z,25.28
2022-08-18T01:04:53.733Z,25.26
2022-08-18T01:07:20.107Z,25.22
2022-08-18T01:09:46.466Z,25.24
2022-08-18T01:12:27.975Z,25.23
2022-08-18T01:14:59.179Z,25.11
2022-08-18T01:17:25.535Z,25.20
2022-08-18T01:19:51.925Z,25.21
2022-08-18T01:22:18.322Z,25.16
2022-08-18T01:24:44.692Z,25.16
2022-08-18T01:27:11.056Z,25.16
2022-08-18T01:29:41.603Z,25.10
2022-08-18T01:32:09.786Z,25.11
2022-08-18T01:34:36.147Z,25.13
2022-08-18T01:37:02.495Z,25.11
2022-08-18T01:41:21.074Z,25.07
2022-08-18T01:42:15.212Z,25.07
2022-08-18T01:44:41.647Z,25.03
2022-08-18T01:47:08.064Z,25.04
2022-08-18T01:49:34.413Z,24.96
2022-08-18T01:52:00.785Z,24.96
2022-08-18T01:54:27.150Z,24.96
2022-08-18T01:56:53.544Z,24.96
2022-08-18T01:59:19.908Z,24.92
2022-08-18T02:01:48.712Z,24.91
2022-08-18T02:04:37.055Z,24.92
2022-08-18T02:07:04.328Z,24.87
2022-08-18T02:09:30.821Z,24.88
2022-08-18T02:11:57.321Z,24.87
2022-08-18T02:14:26.856Z,24.89
2022-08-18T02:16:53.775Z,24.93
2022-08-18T02:19:23.399Z,24.93
2022-08-18T02:21:49.763Z,25.07
2022-08-18T02:24:16.120Z,25.02
2022-08-18T02:26:42.505Z,25.06
2022-08-18T02:29:08.871Z,25.08
2022-08-18T02:31:35.219Z,25.07
2022-08-18T02:34:01.592Z,24.98
2022-08-18T02:36:27.948Z,24.94
2022-08-18T02:38:59.553Z,24.91
2022-08-18T02:41:26.472Z,24.91
2022-08-18T02:43:55.814Z,24.91
2022-08-18T02:46:22.178Z,24.97
2022-08-18T02:48:49.930Z,24.90
2022-08-18T02:51:16.280Z,24.88
2022-08-18T02:53:42.654Z,24.81
2022-08-18T02:56:09.011Z,24.84
2022-08-18T02:58:35.374Z,24.87
2022-08-18T03:01:01.761Z,24.85
2022-08-18T03:03:28.144Z,24.83
2022-08-18T03:05:54.518Z,24.79
2022-08-18T03:08:20.882Z,24.81
2022-08-18T03:10:47.249Z,24.80
2022-08-18T03:13:13.604Z,24.81
2022-08-18T03:15:39.966Z,24.93
2022-08-18T03:18:06.329Z,24.99
2022-08-18T03:20:32.693Z,25.01
2022-08-18T03:22:59.267Z,24.98
2022-08-18T03:25:25.634Z,24.92
2022-08-18T03:27:52.172Z,24.93
2022-08-18T03:30:18.633Z,24.98
2022-08-18T03:32:45.980Z,24.98
2022-08-18T03:35:12.461Z,24.95
2022-08-18T03:37:38.816Z,24.83
2022-08-18T03:40:05.228Z,24.85
2022-08-18T03:42:31.627Z,24.97
2022-08-18T03:44:58.003Z,24.96
2022-08-18T03:47:24.382Z,24.90
2022-08-18T03:49:50.739Z,24.87
2022-08-18T03:52:17.111Z,24.83
2022-08-18T03:54:43.470Z,24.87
2022-08-18T03:57:09.793Z,24.86
2022-08-18T03:59:36.168Z,24.89
2022-08-18T04:02:02.539Z,24.86
2022-08-18T04:04:28.891Z,24.82
2022-08-18T04:06:55.274Z,24.87
2022-08-18T04:09:21.639Z,24.79
2022-08-18T04:11:47.996Z,24.84
2022-08-18T04:14:15.896Z,24.85
2022-08-18T04:16:42.265Z,24.90
2022-08-18T04:19:08.621Z,24.88
2022-08-18T04:21:34.977Z,24.87
2022-08-18T04:24:01.345Z,24.96
2022-08-18T04:26:27.722Z,25.01
2022-08-18T04:28:54.081Z,24.97
2022-08-18T04:31:20.442Z,24.86
2022-08-18T04:33:46.808Z,24.96
2022-08-18T04:36:13.172Z,24.99
2022-08-18T04:38:45.189Z,24.97
2022-08-18T04:41:11.552Z,25.17
2022-08-18T04:43:37.930Z,25.04
2022-08-18T04:46:04.313Z,25.12
2022-08-18T04:48:30.690Z,25.13
2022-08-18T04:50:58.935Z,25.05
2022-08-18T04:53:25.301Z,25.04
2022-08-18T04:55:51.664Z,25.04
2022-08-18T04:58:18.041Z,25.04
2022-08-18T05:00:44.410Z,25.01
2022-08-18T05:03:10.782Z,24.97
2022-08-18T05:05:37.159Z,25.00
2022-08-18T05:08:03.530Z,25.02
2022-08-18T05:10:29.897Z,25.01
2022-08-18T05:12:56.267Z,25.09
2022-08-18T05:15:22.637Z,25.09
2022-08-18T05:17:50.713Z,25.05
2022-08-18T05:20:17.463Z,25.05
2022-08-18T05:22:44.580Z,25.05
2022-08-18T05:25:10.897Z,25.07
2022-08-18T05:27:37.264Z,25.09
2022-08-18T05:30:03.631Z,25.03
2022-08-18T05:32:37.379Z,25.11
2022-08-18T05:35:14.111Z,25.10
2022-08-18T05:37:40.480Z,25.09
2022-08-18T05:40:11.039Z,25.11
2022-08-18T05:42:38.071Z,25.09
2022-08-18T05:45:04.447Z,25.19
2022-08-18T05:47:30.808Z,25.22
2022-08-18T05:49:57.166Z,25.14
2022-08-18T05:52:23.527Z,25.07
2022-08-18T05:54:49.889Z,25.12
2022-08-18T05:57:17.979Z,25.19
2022-08-18T05:59:44.336Z,25.21
2022-08-18T06:02:14.405Z,25.20
2022-08-18T06:04:41.715Z,25.20
2022-08-18T06:07:08.078Z,25.22
2022-08-18T06:09:34.448Z,25.20
2022-08-18T06:12:00.809Z,25.20
2022-08-18T06:14:27.182Z,25.21
2022-08-18T06:16:53.552Z,25.28
2022-08-18T06:19:19.914Z,25.29
2022-08-18T06:21:46.299Z,25.31
2022-08-18T06:24:12.669Z,25.30
2022-08-18T06:26:39.030Z,25.22
2022-08-18T06:29:05.388Z,25.29
2022-08-18T06:31:31.753Z,25.38
2022-08-18T06:33:58.117Z,25.37
2022-08-18T06:36:24.496Z,25.33
2022-08-18T06:38:52.849Z,25.37
2022-08-18T06:41:41.495Z,25.37
2022-08-18T06:44:05.564Z,25.46
2022-08-18T06:46:31.921Z,25.43
2022-08-18T06:48:58.293Z,25.42
2022-08-18T06:51:24.659Z,25.43
2022-08-18T06:53:51.029Z,25.44
2022-08-18T06:56:26.235Z,25.44
2022-08-18T06:58:53.416Z,25.42
2022-08-18T07:01:19.932Z,25.46
2022-08-18T07:03:46.343Z,25.35
2022-08-18T07:06:13.833Z,25.41
2022-08-18T07:08:40.187Z,25.36
2022-08-18T07:11:06.561Z,25.37
2022-08-18T07:13:32.956Z,25.33
2022-08-18T07:15:59.333Z,25.40
2022-08-18T07:18:25.705Z,25.42
2022-08-18T07:20:52.057Z,25.41
2022-08-18T07:23:18.424Z,25.50
2022-08-18T07:25:44.798Z,25.53
2022-08-18T07:28:11.164Z,25.47
2022-08-18T07:30:37.535Z,25.42
2022-08-18T07:33:03.907Z,25.55
2022-08-18T07:35:30.275Z,25.47
2022-08-18T07:37:56.631Z,25.40
2022-08-18T07:40:23.038Z,25.47
2022-08-18T07:42:56.855Z,25.40
2022-08-18T07:45:27.362Z,25.45
2022-08-18T07:47:53.933Z,25.55
2022-08-18T07:50:41.970Z,25.59
2022-08-18T07:53:06.708Z,25.57
2022-08-18T07:55:33.793Z,25.61
2022-08-18T07:58:00.176Z,25.63
2022-08-18T08:00:55.251Z,25.65
2022-08-18T08:03:12.866Z,25.64
2022-08-18T08:05:39.225Z,25.73
2022-08-18T08:08:05.578Z,25.66
2022-08-18T08:10:31.937Z,25.71
2022-08-18T08:13:08.444Z,25.71
2022-08-18T08:15:35.887Z,25.77
2022-08-18T08:18:02.259Z,25.78
2022-08-18T08:20:32.746Z,25.76
2022-08-18T08:22:59.598Z,25.77
2022-08-18T08:25:45.724Z,25.77
2022-08-18T08:28:12.320Z,25.80
2022-08-18T08:30:38.677Z,25.82
2022-08-18T08:33:08.569Z,25.74
2022-08-18T08:35:49.833Z,25.71
2022-08-18T08:38:40.051Z,25.69
2022-08-18T08:41:03.442Z,25.68
2022-08-18T08:43:29.816Z,25.76
2022-08-18T08:45:56.171Z,25.72
2022-08-18T08:48:22.539Z,25.72
2022-08-18T08:50:48.888Z,25.76
2022-08-18T08:53:15.255Z,25.72
2022-08-18T08:55:41.620Z,25.64
2022-08-18T08:58:08.000Z,25.75
2022-08-18T09:00:34.364Z,25.77
2022-08-18T09:03:00.750Z,25.75
2022-08-18T09:05:27.129Z,25.79
2022-08-18T09:07:53.498Z,25.76
2022-08-18T09:10:19.856Z,25.77
2022-08-18T09:12:46.272Z,25.77
2022-08-18T09:15:12.710Z,25.73
2022-08-18T09:17:39.085Z,25.78
2022-08-18T09:20:05.455Z,25.77
2022-08-18T09:22:31.807Z,25.77
2022-08-18T09:24:58.185Z,25.79
2022-08-18T09:27:24.548Z,25.78
2022-08-18T09:29:50.902Z,25.79
2022-08-18T09:32:17.284Z,25.79
2022-08-18T09:34:45.476Z,25.75
2022-08-18T09:37:12.046Z,25.76
2022-08-18T09:39:38.517Z,25.79
2022-08-18T09:42:04.951Z,25.75
2022-08-18T09:44:31.601Z,25.69
2022-08-18T09:46:58.598Z,25.71
2022-08-18T09:49:26.582Z,25.69
2022-08-18T09:51:53.271Z,25.64
2022-08-18T09:54:21.045Z,25.72
2022-08-18T09:56:53.629Z,25.73
2022-08-18T09:59:21.076Z,25.70
2022-08-18T10:01:52.128Z,25.66
2022-08-18T10:07:05.403Z,25.67
2022-08-18T10:09:37.176Z,25.72
2022-08-18T10:12:03.793Z,25.72
2022-08-18T10:14:30.525Z,25.72
2022-08-18T10:19:45.529Z,25.70
2022-08-18T10:22:16.004Z,25.71
2022-08-18T10:25:14.164Z,25.61
2022-08-18T10:27:46.456Z,25.66
2022-08-18T10:30:15.468Z,25.67
2022-08-18T10:32:44.343Z,25.68
2022-08-18T10:35:18.663Z,25.67
2022-08-18T10:37:45.020Z,25.65
2022-08-18T10:40:13.077Z,25.67
2022-08-18T10:42:39.850Z,25.69
2022-08-18T10:45:06.698Z,25.70
2022-08-18T10:47:33.569Z,25.67
2022-08-18T10:50:00.559Z,25.66
2022-08-18T10:52:26.921Z,25.62
2022-08-18T10:54:54.599Z,25.67
2022-08-18T10:57:21.180Z,25.66
2022-08-18T10:59:50.801Z,25.68
2022-08-18T11:02:20.716Z,25.65
2022-08-18T11:04:47.446Z,25.68
2022-08-18T11:07:25.842Z,25.64
2022-08-18T11:10:27.976Z,25.70
2022-08-18T11:12:41.384Z,25.73
2022-08-18T11:15:22.658Z,25.68
2022-08-18T11:17:50.197Z,25.65
2022-08-18T11:20:17.879Z,25.64
2022-08-18T11:22:44.624Z,25.64
2022-08-18T11:25:13.306Z,25.65
2022-08-18T11:27:40.470Z,25.68
2022-08-18T11:30:06.949Z,25.65
2022-08-18T11:32:34.783Z,25.66
2022-08-18T11:35:01.290Z,25.69
2022-08-18T11:37:27.656Z,25.70
2022-08-18T11:39:54.062Z,25.68
2022-08-18T11:42:25.029Z,25.67
2022-08-18T11:44:51.693Z,25.68
2022-08-18T11:47:19.065Z,25.66
2022-08-18T11:49:50.026Z,25.66
2022-08-18T11:52:29.645Z,25.62
2022-08-18T11:55:00.566Z,25.68
2022-08-18T11:57:26.936Z,25.68
2022-08-18T12:00:00.434Z,25.64
2022-08-18T12:02:27.488Z,25.63
2022-08-18T12:04:55.210Z,25.66
2022-08-18T12:07:23.362Z,25.67
2022-08-18T12:12:36.053Z,25.67
2022-08-18T12:15:13.648Z,25.66
2022-08-18T12:17:43.409Z,25.64
2022-08-18T12:20:19.135Z,25.66
2022-08-18T12:22:45.759Z,25.62
2022-08-18T12:25:12.364Z,25.65
2022-08-18T12:27:38.808Z,25.62
2022-08-18T12:30:05.192Z,25.64
2022-08-18T12:32:46.475Z,25.65
2022-08-18T12:35:16.759Z,25.63
2022-08-18T12:38:13.289Z,25.67
2022-08-18T12:40:34.971Z,25.66
2022-08-18T12:43:01.670Z,25.63
2022-08-18T12:45:28.181Z,25.65
2022-08-18T12:47:55.387Z,25.63
2022-08-18T12:50:31.086Z,25.67
2022-08-18T12:52:59.789Z,25.68
2022-08-18T12:55:26.173Z,25.66
2022-08-18T12:57:53.837Z,25.61
2022-08-18T13:00:20.357Z,25.63
2022-08-18T13:02:46.792Z,25.66
2022-08-18T13:05:13.174Z,25.62
2022-08-18T13:07:39.534Z,25.64
2022-08-18T13:10:06.116Z,25.63
2022-08-18T13:12:32.480Z,25.62
2022-08-18T13:14:58.851Z,25.69
2022-08-18T13:17:29.476Z,25.66
2022-08-18T13:20:00.675Z,25.63
2022-08-18T13:22:32.074Z,25.66
2022-08-18T13:24:59.356Z,25.67
2022-08-18T13:27:26.741Z,25.66
2022-08-18T13:29:57.423Z,25.62
2022-08-18T13:32:24.839Z,25.64
2022-08-18T13:34:54.508Z,25.68
2022-08-18T13:37:22.979Z,25.61
2022-08-18T13:39:49.635Z,25.63
2022-08-18T13:42:26.795Z,25.65
2022-08-18T13:44:57.132Z,25.64
2022-08-18T13:47:23.638Z,25.65
2022-08-18T13:49:58.299Z,25.62
2022-08-18T13:52:34.376Z,25.61
2022-08-18T13:55:01.777Z,25.61
2022-08-18T13:57:34.518Z,25.62
2022-08-18T14:00:01.756Z,25.64
2022-08-18T14:02:28.186Z,25.64
2022-08-18T14:04:55.255Z,25.63
2022-08-18T14:07:27.448Z,25.64
2022-08-18T14:09:55.045Z,25.64
2022-08-18T14:12:24.575Z,25.65
2022-08-18T14:14:55.034Z,25.62
2022-08-18T14:17:22.579Z,25.59
2022-08-18T14:19:49.256Z,25.63
2022-08-18T14:22:15.953Z,25.62
2022-08-18T14:24:43.177Z,25.67
2022-08-18T14:27:15.535Z,25.64
2022-08-18T14:29:46.051Z,25.62
2022-08-18T14:32:18.034Z,25.60
2022-08-18T14:34:51.191Z,25.64
2022-08-18T14:37:26.202Z,25.59
2022-08-18T14:39:54.011Z,25.61
2022-08-18T14:42:20.496Z,25.61
2022-08-18T14:45:03.742Z,25.62
2022-08-18T14:47:44.549Z,25.62
2022-08-18T14:50:11.050Z,25.63
2022-08-18T14:52:37.404Z,25.60
2022-08-18T14:55:06.143Z,25.61
2022-08-18T14:57:34.141Z,25.60
2022-08-18T15:00:00.587Z,25.59
2022-08-18T15:02:27.001Z,25.57
2022-08-18T15:04:57.803Z,25.58
2022-08-18T15:07:24.427Z,25.60
2022-08-18T15:09:50.780Z,25.58
2022-08-18T15:12:37.116Z,25.57
2022-08-18T15:15:04.557Z,25.56
2022-08-18T15:17:32.253Z,25.56
2022-08-18T15:20:04.284Z,25.55
2022-08-18T15:22:30.640Z,25.55
2022-08-18T15:24:58.618Z,25.54
2022-08-18T15:27:42.555Z,25.58
2022-08-18T15:30:09.844Z,25.54
2022-08-18T15:32:37.710Z,25.57
2022-08-18T15:35:11.825Z,25.58
2022-08-18T15:37:38.344Z,25.59
2022-08-18T15:40:09.964Z,25.57
2022-08-18T15:42:56.243Z,25.56
2022-08-18T15:45:26.566Z,25.58
2022-08-18T15:47:53.131Z,25.56
2022-08-18T15:50:25.842Z,25.56
2022-08-18T15:55:23.714Z,25.55
2022-08-18T15:57:51.857Z,25.55
2022-08-18T16:00:24.912Z,25.53
2022-08-18T16:02:52.302Z,25.51
2022-08-18T16:05:18.681Z,25.54
2022-08-18T16:07:47.839Z,25.54
2022-08-18T16:10:14.207Z,25.54
2022-08-18T16:12:45.800Z,25.56
2022-08-18T16:17:39.809Z,25.55
2022-08-18T16:20:06.182Z,25.59
2022-08-18T16:22:32.567Z,25.57
2022-08-18T16:24:58.936Z,25.55
2022-08-18T16:27:25.318Z,25.57
2022-08-18T16:29:51.672Z,25.53
2022-08-18T16:32:18.036Z,25.49
2022-08-18T16:34:44.383Z,25.51
2022-08-18T16:37:10.804Z,25.53
2022-08-18T16:39:37.236Z,25.50
2022-08-18T16:42:03.664Z,25.48
2022-08-18T16:44:30.015Z,25.47
2022-08-18T16:46:56.388Z,25.48
2022-08-18T16:49:22.745Z,25.49
2022-08-18T16:51:49.096Z,25.49
2022-08-18T16:54:15.447Z,25.48
2022-08-18T16:56:41.817Z,25.48
2022-08-18T16:59:08.179Z,25.49
2022-08-18T17:01:49.061Z,25.48
2022-08-18T17:04:20.870Z,25.49
2022-08-18T17:06:47.697Z,25.47
2022-08-18T17:09:14.417Z,25.47
2022-08-18T17:11:47.916Z,25.48
2022-08-18T17:14:17.826Z,25.47
2022-08-18T17:16:46.213Z,25.45
2022-08-18T17:19:12.579Z,25.48
2022-08-18T17:21:38.955Z,25.48
2022-08-18T17:24:05.325Z,25.48
2022-08-18T17:26:32.265Z,25.47
2022-08-18T17:28:58.619Z,25.49
2022-08-18T17:31:24.990Z,25.47
2022-08-18T17:33:51.353Z,25.44
2022-08-18T17:36:17.717Z,25.46
2022-08-18T17:38:44.090Z,25.47
2022-08-18T17:41:10.450Z,25.49
2022-08-18T17:43:36.835Z,25.47
2022-08-18T17:46:03.216Z,25.48
2022-08-18T17:48:29.594Z,25.48
2022-08-18T17:50:55.965Z,25.48
2022-08-18T17:53:22.313Z,25.46
2022-08-18T17:55:48.688Z,25.43
2022-08-18T17:58:15.055Z,25.45
2022-08-18T18:00:41.408Z,25.46
2022-08-18T18:03:09.792Z,25.44
2022-08-18T18:05:39.104Z,25.46
2022-08-18T18:08:05.465Z,25.44
2022-08-18T18:10:31.831Z,25.47
2022-08-18T18:12:59.167Z,25.45
2022-08-18T18:15:25.632Z,25.44
2022-08-18T18:17:54.025Z,25.45
2022-08-18T18:20:20.452Z,25.46
2022-08-18T18:22:46.803Z,25.47
2022-08-18T18:25:13.166Z,25.44
2022-08-18T18:27:39.546Z,25.43
2022-08-18T18:30:06.498Z,25.43
2022-08-18T18:32:32.859Z,25.44
2022-08-18T18:34:59.214Z,25.41
2022-08-18T18:37:25.568Z,25.42
2022-08-18T18:39:51.950Z,25.43
2022-08-18T18:42:18.336Z,25.40
2022-08-18T18:44:44.719Z,25.47
2022-08-18T18:47:11.066Z,25.40
2022-08-18T18:49:37.421Z,25.46
2022-08-18T18:52:03.779Z,25.42
2022-08-18T18:54:30.126Z,25.39
2022-08-18T18:56:56.479Z,25.39
2022-08-18T18:59:22.841Z,25.39
2022-08-18T19:01:49.230Z,25.40
2022-08-18T19:04:15.616Z,25.41
2022-08-18T19:06:41.984Z,25.39
2022-08-18T19:09:08.354Z,25.40
2022-08-18T19:11:34.713Z,25.41
2022-08-18T19:14:02.067Z,25.38
2022-08-18T19:16:28.543Z,25.41
2022-08-18T19:18:57.954Z,25.18
2022-08-18T19:22:03.152Z,25.20
2022-08-18T19:24:27.607Z,25.17
2022-08-18T19:26:53.980Z,25.17
2022-08-18T19:29:20.332Z,25.11
2022-08-18T19:31:46.696Z,25.07
2022-08-18T19:34:13.066Z,25.15
2022-08-18T19:36:41.455Z,25.13
2022-08-18T19:39:10.276Z,25.11
2022-08-18T19:41:39.302Z,25.12
2022-08-18T19:44:05.824Z,25.06
2022-08-18T19:46:32.185Z,25.07
2022-08-18T19:48:58.540Z,25.06
2022-08-18T19:51:24.910Z,25.07
2022-08-18T19:53:52.828Z,25.06
2022-08-18T19:56:21.430Z,25.01
2022-08-18T19:59:11.239Z,24.99
2022-08-18T20:01:34.584Z,25.07
2022-08-18T20:04:00.977Z,25.12
2022-08-18T20:06:33.934Z,25.09
2022-08-18T20:09:02.086Z,25.05
2022-08-18T20:11:41.309Z,25.01
2022-08-18T20:14:08.601Z,25.00
2022-08-18T20:16:44.600Z,25.13
2022-08-18T20:19:16.167Z,25.05
2022-08-18T20:21:42.893Z,25.10
2022-08-18T20:24:09.258Z,25.17
2022-08-18T20:26:35.653Z,25.09
2022-08-18T20:29:02.012Z,25.13
2022-08-18T20:31:28.373Z,25.14
2022-08-18T20:33:54.785Z,25.11
2022-08-18T20:36:21.171Z,25.14
2022-08-18T20:38:47.521Z,25.17
2022-08-18T20:41:13.884Z,25.13
2022-08-18T20:43:40.248Z,25.14
2022-08-18T20:46:06.607Z,25.12
2022-08-18T20:48:32.968Z,25.09
2022-08-18T20:50:59.329Z,25.07
2022-08-18T20:53:25.698Z,25.09
2022-08-18T20:55:53.397Z,25.11
2022-08-18T20:58:19.825Z,25.08
2022-08-18T21:00:46.253Z,25.14
2022-08-18T21:03:12.699Z,25.16
2022-08-18T21:05:39.059Z,25.20
2022-08-18T21:08:05.408Z,25.25
2022-08-18T21:10:31.774Z,25.23
2022-08-18T21:12:58.376Z,25.29
2022-08-18T21:15:24.844Z,25.28
2022-08-18T21:17:55.079Z,25.30
2022-08-18T21:20:23.131Z,25.33
2022-08-18T21:22:49.484Z,25.23
2022-08-18T21:25:15.855Z,25.27
2022-08-18T21:27:42.262Z,25.24
2022-08-18T21:30:08.620Z,25.28
2022-08-18T21:32:34.994Z,25.15
2022-08-18T21:35:01.348Z,25.23
2022-08-18T21:37:27.703Z,25.31
2022-08-18T21:39:56.935Z,25.34
2022-08-18T21:42:23.406Z,25.22
2022-08-18T21:44:49.766Z,25.40
2022-08-18T21:47:16.125Z,25.36
2022-08-18T21:49:42.495Z,25.31
2022-08-18T21:52:09.545Z,25.33
2022-08-18T21:54:37.470Z,25.28
2022-08-18T21:57:11.250Z,25.30
2022-08-18T21:59:38.129Z,25.34
2022-08-18T22:02:04.502Z,25.24
2022-08-18T22:04:30.871Z,25.31
2022-08-18T22:06:57.241Z,25.36
2022-08-18T22:09:23.592Z,25.35
2022-08-18T22:12:02.191Z,25.32
2022-08-18T22:14:28.965Z,25.29
2022-08-18T22:16:55.326Z,25.24
2022-08-18T22:19:21.686Z,25.28
2022-08-18T22:21:48.046Z,25.22
2022-08-18T22:24:14.409Z,25.23
2022-08-18T22:26:40.771Z,25.20
2022-08-18T22:29:07.134Z,25.18
2022-08-18T22:31:33.501Z,25.07
2022-08-18T22:33:59.945Z,25.02
2022-08-18T22:36:26.317Z,25.00
2022-08-18T22:38:52.687Z,25.01
2022-08-18T22:41:19.050Z,25.11
2022-08-18T22:43:45.412Z,25.13
2022-08-18T22:46:14.150Z,25.10
2022-08-18T22:48:50.602Z,25.15
2022-08-18T22:51:16.953Z,25.13
2022-08-18T22:53:43.312Z,25.14
2022-08-18T22:56:10.170Z,25.17
2022-08-18T22:58:36.531Z,25.19
2022-08-18T23:01:06.117Z,25.22
2022-08-18T23:03:34.490Z,25.27
2022-08-18T23:06:08.312Z,25.23
2022-08-18T23:08:54.279Z,25.21
2022-08-18T23:11:21.000Z,25.15
2022-08-18T23:13:48.519Z,25.03
2022-08-18T23:16:31.456Z,25.07
2022-08-18T23:18:58.628Z,25.09
2022-08-18T23:21:35.009Z,25.07
2022-08-18T23:24:01.946Z,25.00
2022-08-18T23:26:29.549Z,25.00
2022-08-18T23:28:56.989Z,24.90
2022-08-18T23:31:23.360Z,24.83
2022-08-18T23:33:49.727Z,24.42
2022-08-18T23:36:16.101Z,24.04
2022-08-18T23:38:42.466Z,24.02
2022-08-18T23:41:08.836Z,24.25
2022-08-18T23:43:35.197Z,24.04
2022-08-18T23:46:01.565Z,23.75
2022-08-18T23:48:27.922Z,23.91
2022-08-18T23:50:54.279Z,24.37
2022-08-18T23:53:20.644Z,24.52
2022-08-18T23:55:47.021Z,24.65
2022-08-18T23:58:13.384Z,24.58
